sensor_id;sensor_type;location;lat;lon;timestamp;pressure;altitude;pressure_sealevel;temperature;humidity
28306;BME280;7516;43.570;1.448;2023-07-22T00:01:22;99828.66;;;20.51;76.48
28306;BME280;7516;43.570;1.448;2023-07-22T00:03:49;99829.56;;;20.68;76.60
28306;BME280;7516;43.570;1.448;2023-07-22T00:06:18;99839.38;;;20.91;75.59
28306;BME280;7516;43.570;1.448;2023-07-22T00:08:46;99842.78;;;21.03;75.36
28306;BME280;7516;43.570;1.448;2023-07-22T00:11:13;99838.94;;;20.82;75.68
28306;BME280;7516;43.570;1.448;2023-07-22T00:13:41;99826.66;;;20.81;74.93
28306;BME280;7516;43.570;1.448;2023-07-22T00:16:10;99823.88;;;20.76;75.38
28306;BME280;7516;43.570;1.448;2023-07-22T00:18:37;99819.41;;;20.53;76.44
28306;BME280;7516;43.570;1.448;2023-07-22T00:21:05;99830.19;;;20.47;77.40
28306;BME280;7516;43.570;1.448;2023-07-22T00:23:34;99839.59;;;20.38;77.33
28306;BME280;7516;43.570;1.448;2023-07-22T00:26:02;99847.75;;;20.24;78.64
28306;BME280;7516;43.570;1.448;2023-07-22T00:28:30;99835.50;;;20.23;79.37
28306;BME280;7516;43.570;1.448;2023-07-22T00:30:57;99841.28;;;20.20;79.69
28306;BME280;7516;43.570;1.448;2023-07-22T00:33:25;99831.00;;;20.36;79.02
28306;BME280;7516;43.570;1.448;2023-07-22T00:35:53;99822.34;;;20.40;78.49
28306;BME280;7516;43.570;1.448;2023-07-22T00:38:21;99817.44;;;20.25;79.14
28306;BME280;7516;43.570;1.448;2023-07-22T00:40:50;99811.22;;;20.32;79.57
28306;BME280;7516;43.570;1.448;2023-07-22T00:43:17;99800.19;;;20.16;80.39
28306;BME280;7516;43.570;1.448;2023-07-22T00:45:45;99800.69;;;20.13;80.42
28306;BME280;7516;43.570;1.448;2023-07-22T00:48:13;99782.59;;;20.15;80.85
28306;BME280;7516;43.570;1.448;2023-07-22T00:50:41;99785.03;;;20.28;80.73
28306;BME280;7516;43.570;1.448;2023-07-22T00:53:09;99778.91;;;20.28;80.53
28306;BME280;7516;43.570;1.448;2023-07-22T00:55:39;99766.19;;;20.18;80.38
28306;BME280;7516;43.570;1.448;2023-07-22T00:58:08;99755.63;;;20.23;80.34
28306;BME280;7516;43.570;1.448;2023-07-22T01:00:36;99734.94;;;20.25;80.69
28306;BME280;7516;43.570;1.448;2023-07-22T01:03:04;99723.16;;;20.10;81.29
28306;BME280;7516;43.570;1.448;2023-07-22T01:05:35;99708.00;;;20.10;81.43
28306;BME280;7516;43.570;1.448;2023-07-22T01:08:03;99705.78;;;20.07;81.14
28306;BME280;7516;43.570;1.448;2023-07-22T01:10:30;99702.56;;;20.05;81.68
28306;BME280;7516;43.570;1.448;2023-07-22T01:12:58;99712.63;;;20.03;82.41
28306;BME280;7516;43.570;1.448;2023-07-22T01:15:27;99722.59;;;19.96;83.21
28306;BME280;7516;43.570;1.448;2023-07-22T01:17:55;99725.50;;;19.95;82.70
28306;BME280;7516;43.570;1.448;2023-07-22T01:20:28;99721.88;;;20.12;82.37
28306;BME280;7516;43.570;1.448;2023-07-22T01:22:57;99726.97;;;20.02;82.61
28306;BME280;7516;43.570;1.448;2023-07-22T01:25:25;99726.63;;;19.99;82.90
28306;BME280;7516;43.570;1.448;2023-07-22T01:27:53;99734.38;;;20.00;82.50
28306;BME280;7516;43.570;1.448;2023-07-22T01:30:21;99743.88;;;19.96;82.31
28306;BME280;7516;43.570;1.448;2023-07-22T01:32:48;99771.97;;;19.92;82.50
28306;BME280;7516;43.570;1.448;2023-07-22T01:35:16;99774.53;;;19.87;82.72
28306;BME280;7516;43.570;1.448;2023-07-22T01:37:44;99766.53;;;20.10;82.15
28306;BME280;7516;43.570;1.448;2023-07-22T01:40:13;99772.44;;;19.89;82.35
28306;BME280;7516;43.570;1.448;2023-07-22T01:42:41;99776.97;;;19.77;83.34
28306;BME280;7516;43.570;1.448;2023-07-22T01:45:09;99777.84;;;19.71;83.65
28306;BME280;7516;43.570;1.448;2023-07-22T01:47:38;99780.97;;;19.79;83.03
28306;BME280;7516;43.570;1.448;2023-07-22T01:50:06;99774.63;;;19.69;83.59
28306;BME280;7516;43.570;1.448;2023-07-22T01:52:34;99735.66;;;19.74;83.81
28306;BME280;7516;43.570;1.448;2023-07-22T01:55:01;99698.97;;;20.11;82.66
28306;BME280;7516;43.570;1.448;2023-07-22T01:57:33;99698.97;;;20.11;81.56
28306;BME280;7516;43.570;1.448;2023-07-22T02:00:00;99723.06;;;19.93;80.93
28306;BME280;7516;43.570;1.448;2023-07-22T02:02:28;99725.47;;;19.71;81.47
28306;BME280;7516;43.570;1.448;2023-07-22T02:04:56;99735.09;;;19.61;82.67
28306;BME280;7516;43.570;1.448;2023-07-22T02:07:24;99739.94;;;19.52;82.90
28306;BME280;7516;43.570;1.448;2023-07-22T02:09:52;99733.09;;;19.56;82.86
28306;BME280;7516;43.570;1.448;2023-07-22T02:12:20;99718.78;;;19.69;83.39
28306;BME280;7516;43.570;1.448;2023-07-22T02:14:49;99730.34;;;19.51;83.01
28306;BME280;7516;43.570;1.448;2023-07-22T02:17:16;99730.66;;;19.43;83.00
28306;BME280;7516;43.570;1.448;2023-07-22T02:19:44;99721.13;;;19.35;83.23
28306;BME280;7516;43.570;1.448;2023-07-22T02:22:11;99716.28;;;19.32;83.59
28306;BME280;7516;43.570;1.448;2023-07-22T02:24:39;99721.59;;;19.32;83.56
28306;BME280;7516;43.570;1.448;2023-07-22T02:27:07;99724.72;;;19.29;83.82
28306;BME280;7516;43.570;1.448;2023-07-22T02:29:35;99728.41;;;19.28;83.85
28306;BME280;7516;43.570;1.448;2023-07-22T02:32:04;99729.31;;;19.22;83.71
28306;BME280;7516;43.570;1.448;2023-07-22T02:34:32;99734.88;;;19.21;83.94
28306;BME280;7516;43.570;1.448;2023-07-22T02:36:59;99751.25;;;19.17;83.66
28306;BME280;7516;43.570;1.448;2023-07-22T02:39:27;99739.03;;;19.16;83.44
28306;BME280;7516;43.570;1.448;2023-07-22T02:41:55;99744.56;;;19.15;83.65
28306;BME280;7516;43.570;1.448;2023-07-22T02:44:22;99738.78;;;19.18;83.75
28306;BME280;7516;43.570;1.448;2023-07-22T02:46:50;99752.38;;;19.10;83.65
28306;BME280;7516;43.570;1.448;2023-07-22T02:49:19;99758.84;;;19.02;83.58
28306;BME280;7516;43.570;1.448;2023-07-22T02:51:46;99757.94;;;19.08;83.39
28306;BME280;7516;43.570;1.448;2023-07-22T02:54:14;99760.63;;;19.20;83.35
28306;BME280;7516;43.570;1.448;2023-07-22T02:56:41;99766.03;;;19.13;83.10
28306;BME280;7516;43.570;1.448;2023-07-22T02:59:09;99777.44;;;19.02;83.06
28306;BME280;7516;43.570;1.448;2023-07-22T03:01:37;99762.50;;;18.90;84.16
28306;BME280;7516;43.570;1.448;2023-07-22T03:04:05;99764.41;;;18.83;84.35
28306;BME280;7516;43.570;1.448;2023-07-22T03:06:34;99769.06;;;18.87;84.11
28306;BME280;7516;43.570;1.448;2023-07-22T03:09:01;99776.66;;;18.84;84.37
28306;BME280;7516;43.570;1.448;2023-07-22T03:11:30;99767.31;;;18.81;84.15
28306;BME280;7516;43.570;1.448;2023-07-22T03:13:58;99767.06;;;18.83;83.73
28306;BME280;7516;43.570;1.448;2023-07-22T03:16:26;99772.09;;;18.91;84.44
28306;BME280;7516;43.570;1.448;2023-07-22T03:18:53;99775.94;;;18.76;83.63
28306;BME280;7516;43.570;1.448;2023-07-22T03:21:21;99784.50;;;18.78;83.80
28306;BME280;7516;43.570;1.448;2023-07-22T03:23:49;99794.59;;;18.70;83.75
28306;BME280;7516;43.570;1.448;2023-07-22T03:26:17;99796.16;;;18.59;83.91
28306;BME280;7516;43.570;1.448;2023-07-22T03:28:44;99794.75;;;18.57;84.41
28306;BME280;7516;43.570;1.448;2023-07-22T03:31:12;99794.16;;;18.55;84.27
28306;BME280;7516;43.570;1.448;2023-07-22T03:33:39;99790.09;;;18.52;84.31
28306;BME280;7516;43.570;1.448;2023-07-22T03:36:09;99799.06;;;18.51;84.44
28306;BME280;7516;43.570;1.448;2023-07-22T03:38:36;99797.78;;;18.60;85.03
28306;BME280;7516;43.570;1.448;2023-07-22T03:41:05;99809.28;;;18.72;84.74
28306;BME280;7516;43.570;1.448;2023-07-22T03:43:33;99813.72;;;18.60;83.32
28306;BME280;7516;43.570;1.448;2023-07-22T03:46:00;99813.25;;;18.45;84.28
28306;BME280;7516;43.570;1.448;2023-07-22T03:48:28;99812.56;;;18.50;85.04
28306;BME280;7516;43.570;1.448;2023-07-22T03:50:55;99808.97;;;18.44;84.73
28306;BME280;7516;43.570;1.448;2023-07-22T03:53:23;99813.06;;;18.40;84.48
28306;BME280;7516;43.570;1.448;2023-07-22T03:55:50;99815.50;;;18.41;84.96
28306;BME280;7516;43.570;1.448;2023-07-22T03:58:19;99820.53;;;18.50;85.41
28306;BME280;7516;43.570;1.448;2023-07-22T04:00:49;99825.53;;;18.64;85.38
28306;BME280;7516;43.570;1.448;2023-07-22T04:03:16;99829.03;;;18.76;84.70
28306;BME280;7516;43.570;1.448;2023-07-22T04:05:44;99824.84;;;18.87;85.78
28306;BME280;7516;43.570;1.448;2023-07-22T04:08:11;99818.84;;;18.73;85.05
28306;BME280;7516;43.570;1.448;2023-07-22T04:10:39;99818.34;;;18.47;85.93
28306;BME280;7516;43.570;1.448;2023-07-22T04:13:06;99823.94;;;18.57;87.64
28306;BME280;7516;43.570;1.448;2023-07-22T04:15:35;99820.63;;;18.79;86.49
28306;BME280;7516;43.570;1.448;2023-07-22T04:18:02;99824.38;;;18.54;86.22
28306;BME280;7516;43.570;1.448;2023-07-22T04:20:30;99833.00;;;18.49;88.18
28306;BME280;7516;43.570;1.448;2023-07-22T04:22:57;99839.09;;;18.50;87.54
28306;BME280;7516;43.570;1.448;2023-07-22T04:25:25;99842.97;;;18.54;88.53
28306;BME280;7516;43.570;1.448;2023-07-22T04:27:52;99842.56;;;18.50;87.68
28306;BME280;7516;43.570;1.448;2023-07-22T04:30:20;99847.50;;;18.28;88.37
28306;BME280;7516;43.570;1.448;2023-07-22T04:32:49;99840.31;;;18.11;89.17
28306;BME280;7516;43.570;1.448;2023-07-22T04:35:17;99850.31;;;18.09;90.13
28306;BME280;7516;43.570;1.448;2023-07-22T04:37:44;99853.31;;;18.19;90.25
28306;BME280;7516;43.570;1.448;2023-07-22T04:40:12;99857.34;;;18.21;89.34
28306;BME280;7516;43.570;1.448;2023-07-22T04:42:42;99856.00;;;18.12;90.31
28306;BME280;7516;43.570;1.448;2023-07-22T04:45:10;99858.09;;;18.03;89.99
28306;BME280;7516;43.570;1.448;2023-07-22T04:47:38;99860.38;;;18.25;91.25
28306;BME280;7516;43.570;1.448;2023-07-22T04:50:09;99859.56;;;18.24;89.48
28306;BME280;7516;43.570;1.448;2023-07-22T04:52:37;99854.28;;;17.99;90.01
28306;BME280;7516;43.570;1.448;2023-07-22T04:55:06;99859.31;;;17.83;90.87
28306;BME280;7516;43.570;1.448;2023-07-22T04:57:35;99860.34;;;17.82;91.00
28306;BME280;7516;43.570;1.448;2023-07-22T05:00:03;99861.69;;;17.91;90.65
28306;BME280;7516;43.570;1.448;2023-07-22T05:02:31;99853.41;;;18.05;90.05
28306;BME280;7516;43.570;1.448;2023-07-22T05:04:59;99861.81;;;18.02;90.04
28306;BME280;7516;43.570;1.448;2023-07-22T05:07:28;99850.16;;;18.03;90.38
28306;BME280;7516;43.570;1.448;2023-07-22T05:09:55;99862.22;;;18.24;89.13
28306;BME280;7516;43.570;1.448;2023-07-22T05:12:23;99860.53;;;18.05;89.21
28306;BME280;7516;43.570;1.448;2023-07-22T05:14:50;99860.59;;;18.23;90.04
28306;BME280;7516;43.570;1.448;2023-07-22T05:17:18;99859.91;;;18.53;88.46
28306;BME280;7516;43.570;1.448;2023-07-22T05:19:45;99863.84;;;18.25;87.86
28306;BME280;7516;43.570;1.448;2023-07-22T05:22:14;99856.97;;;18.18;88.53
28306;BME280;7516;43.570;1.448;2023-07-22T05:24:44;99864.94;;;18.18;88.32
28306;BME280;7516;43.570;1.448;2023-07-22T05:27:12;99864.84;;;18.49;88.86
28306;BME280;7516;43.570;1.448;2023-07-22T05:29:39;99865.38;;;18.15;88.31
28306;BME280;7516;43.570;1.448;2023-07-22T05:32:08;99863.47;;;18.22;89.30
28306;BME280;7516;43.570;1.448;2023-07-22T05:34:35;99862.22;;;18.24;88.81
28306;BME280;7516;43.570;1.448;2023-07-22T05:37:03;99864.25;;;18.47;86.81
28306;BME280;7516;43.570;1.448;2023-07-22T05:39:30;99846.53;;;18.41;86.75
28306;BME280;7516;43.570;1.448;2023-07-22T05:41:59;99855.00;;;18.93;87.17
28306;BME280;7516;43.570;1.448;2023-07-22T05:44:27;99857.53;;;18.69;85.17
28306;BME280;7516;43.570;1.448;2023-07-22T05:46:54;99862.47;;;18.41;86.02
28306;BME280;7516;43.570;1.448;2023-07-22T05:49:22;99860.91;;;18.58;85.72
28306;BME280;7516;43.570;1.448;2023-07-22T05:51:49;99855.84;;;18.50;85.91
28306;BME280;7516;43.570;1.448;2023-07-22T05:54:17;99863.88;;;18.43;85.31
28306;BME280;7516;43.570;1.448;2023-07-22T05:56:45;99863.47;;;18.47;85.08
28306;BME280;7516;43.570;1.448;2023-07-22T05:59:14;99863.22;;;18.48;84.47
28306;BME280;7516;43.570;1.448;2023-07-22T06:01:41;99866.25;;;18.52;84.25
28306;BME280;7516;43.570;1.448;2023-07-22T06:04:09;99861.75;;;18.52;83.67
28306;BME280;7516;43.570;1.448;2023-07-22T06:06:36;99865.19;;;18.59;83.85
28306;BME280;7516;43.570;1.448;2023-07-22T06:09:04;99864.28;;;18.65;83.49
28306;BME280;7516;43.570;1.448;2023-07-22T06:11:31;99870.38;;;18.72;83.13
28306;BME280;7516;43.570;1.448;2023-07-22T06:13:59;99868.72;;;18.71;82.47
28306;BME280;7516;43.570;1.448;2023-07-22T06:16:27;99872.84;;;18.67;82.14
28306;BME280;7516;43.570;1.448;2023-07-22T06:18:55;99861.81;;;18.70;82.37
28306;BME280;7516;43.570;1.448;2023-07-22T06:21:23;99869.91;;;18.75;81.14
28306;BME280;7516;43.570;1.448;2023-07-22T06:23:50;99873.03;;;18.72;80.15
28306;BME280;7516;43.570;1.448;2023-07-22T06:26:18;99866.81;;;18.78;79.80
28306;BME280;7516;43.570;1.448;2023-07-22T06:28:45;99870.38;;;18.91;80.05
28306;BME280;7516;43.570;1.448;2023-07-22T06:31:13;99876.19;;;18.99;78.79
28306;BME280;7516;43.570;1.448;2023-07-22T06:33:41;99877.44;;;18.97;78.78
28306;BME280;7516;43.570;1.448;2023-07-22T06:36:09;99872.13;;;18.97;78.08
28306;BME280;7516;43.570;1.448;2023-07-22T06:38:36;99880.69;;;18.99;77.43
28306;BME280;7516;43.570;1.448;2023-07-22T06:41:04;99880.81;;;19.04;77.88
28306;BME280;7516;43.570;1.448;2023-07-22T06:43:31;99881.53;;;19.11;77.48
28306;BME280;7516;43.570;1.448;2023-07-22T06:45:59;99892.59;;;19.26;77.38
28306;BME280;7516;43.570;1.448;2023-07-22T06:48:27;99887.66;;;19.30;76.85
28306;BME280;7516;43.570;1.448;2023-07-22T06:50:55;99883.16;;;19.30;76.09
28306;BME280;7516;43.570;1.448;2023-07-22T06:53:23;99897.13;;;19.26;75.55
28306;BME280;7516;43.570;1.448;2023-07-22T06:55:51;99885.00;;;19.30;75.90
28306;BME280;7516;43.570;1.448;2023-07-22T06:58:19;99894.97;;;19.34;75.35
28306;BME280;7516;43.570;1.448;2023-07-22T07:00:49;99891.13;;;19.30;75.49
28306;BME280;7516;43.570;1.448;2023-07-22T07:03:19;99895.53;;;19.36;75.05
28306;BME280;7516;43.570;1.448;2023-07-22T07:05:52;99896.72;;;19.40;74.80
28306;BME280;7516;43.570;1.448;2023-07-22T07:08:21;99895.63;;;19.48;74.74
28306;BME280;7516;43.570;1.448;2023-07-22T07:10:49;99903.44;;;19.43;74.36
28306;BME280;7516;43.570;1.448;2023-07-22T07:13:17;99899.72;;;19.44;74.02
28306;BME280;7516;43.570;1.448;2023-07-22T07:15:46;99904.19;;;19.50;74.39
28306;BME280;7516;43.570;1.448;2023-07-22T07:18:15;99906.09;;;19.61;74.16
28306;BME280;7516;43.570;1.448;2023-07-22T07:20:44;99891.16;;;19.60;73.62
28306;BME280;7516;43.570;1.448;2023-07-22T07:23:12;99895.19;;;19.63;73.05
28306;BME280;7516;43.570;1.448;2023-07-22T07:25:41;99900.06;;;19.66;73.17
28306;BME280;7516;43.570;1.448;2023-07-22T07:28:08;99895.34;;;19.68;72.17
28306;BME280;7516;43.570;1.448;2023-07-22T07:30:37;99903.66;;;19.71;71.85
28306;BME280;7516;43.570;1.448;2023-07-22T07:33:05;99906.81;;;19.80;71.30
28306;BME280;7516;43.570;1.448;2023-07-22T07:35:32;99906.97;;;19.85;71.15
28306;BME280;7516;43.570;1.448;2023-07-22T07:38:00;99901.16;;;19.88;71.00
28306;BME280;7516;43.570;1.448;2023-07-22T07:40:27;99901.91;;;19.95;71.21
28306;BME280;7516;43.570;1.448;2023-07-22T07:42:56;99906.41;;;20.06;70.60
28306;BME280;7516;43.570;1.448;2023-07-22T07:45:23;99907.38;;;20.12;69.81
28306;BME280;7516;43.570;1.448;2023-07-22T07:47:51;99895.22;;;20.04;69.28
28306;BME280;7516;43.570;1.448;2023-07-22T07:50:19;99896.34;;;20.08;70.18
28306;BME280;7516;43.570;1.448;2023-07-22T07:52:47;99894.16;;;20.17;70.00
28306;BME280;7516;43.570;1.448;2023-07-22T07:55:15;99889.53;;;20.24;69.57
28306;BME280;7516;43.570;1.448;2023-07-22T07:57:42;99888.53;;;20.37;69.40
28306;BME280;7516;43.570;1.448;2023-07-22T08:00:12;99890.25;;;20.31;68.91
28306;BME280;7516;43.570;1.448;2023-07-22T08:02:39;99891.22;;;20.37;68.96
28306;BME280;7516;43.570;1.448;2023-07-22T08:05:07;99890.84;;;20.45;68.78
28306;BME280;7516;43.570;1.448;2023-07-22T08:07:35;99888.66;;;20.42;68.09
28306;BME280;7516;43.570;1.448;2023-07-22T08:10:03;99902.19;;;20.52;67.61
28306;BME280;7516;43.570;1.448;2023-07-22T08:12:31;99896.63;;;20.53;67.49
28306;BME280;7516;43.570;1.448;2023-07-22T08:14:58;99900.34;;;20.64;67.36
28306;BME280;7516;43.570;1.448;2023-07-22T08:17:27;99895.03;;;20.64;66.27
28306;BME280;7516;43.570;1.448;2023-07-22T08:19:54;99892.22;;;20.71;67.22
28306;BME280;7516;43.570;1.448;2023-07-22T08:22:22;99900.66;;;20.79;66.57
28306;BME280;7516;43.570;1.448;2023-07-22T08:24:50;99904.50;;;20.83;65.45
28306;BME280;7516;43.570;1.448;2023-07-22T08:27:17;99908.31;;;20.87;65.40
28306;BME280;7516;43.570;1.448;2023-07-22T08:29:46;99906.66;;;20.98;65.47
28306;BME280;7516;43.570;1.448;2023-07-22T08:32:13;99899.94;;;20.95;64.71
28306;BME280;7516;43.570;1.448;2023-07-22T08:34:42;99903.41;;;20.96;64.34
28306;BME280;7516;43.570;1.448;2023-07-22T08:37:10;99910.25;;;21.03;64.95
28306;BME280;7516;43.570;1.448;2023-07-22T08:39:38;99901.69;;;21.01;64.28
28306;BME280;7516;43.570;1.448;2023-07-22T08:42:06;99906.16;;;21.13;64.05
28306;BME280;7516;43.570;1.448;2023-07-22T08:44:37;99898.88;;;21.20;64.18
28306;BME280;7516;43.570;1.448;2023-07-22T08:47:10;99901.72;;;21.30;64.33
28306;BME280;7516;43.570;1.448;2023-07-22T08:49:41;99900.19;;;21.46;64.11
28306;BME280;7516;43.570;1.448;2023-07-22T08:52:13;99905.25;;;21.47;62.38
28306;BME280;7516;43.570;1.448;2023-07-22T08:54:42;99901.66;;;21.53;62.93
28306;BME280;7516;43.570;1.448;2023-07-22T08:57:11;99906.50;;;21.56;62.20
28306;BME280;7516;43.570;1.448;2023-07-22T08:59:39;99899.53;;;21.55;62.00
28306;BME280;7516;43.570;1.448;2023-07-22T09:02:08;99903.94;;;21.61;62.34
28306;BME280;7516;43.570;1.448;2023-07-22T09:04:39;99905.63;;;21.67;62.39
28306;BME280;7516;43.570;1.448;2023-07-22T09:07:10;99905.97;;;21.71;61.92
28306;BME280;7516;43.570;1.448;2023-07-22T09:09:38;99907.34;;;21.73;61.33
28306;BME280;7516;43.570;1.448;2023-07-22T09:12:07;99903.22;;;21.83;61.29
28306;BME280;7516;43.570;1.448;2023-07-22T09:14:35;99903.34;;;21.88;61.40
28306;BME280;7516;43.570;1.448;2023-07-22T09:17:05;99904.22;;;21.93;60.67
28306;BME280;7516;43.570;1.448;2023-07-22T09:19:33;99906.22;;;21.98;60.11
28306;BME280;7516;43.570;1.448;2023-07-22T09:22:00;99909.75;;;22.03;59.88
28306;BME280;7516;43.570;1.448;2023-07-22T09:24:29;99909.03;;;22.08;59.97
28306;BME280;7516;43.570;1.448;2023-07-22T09:26:59;99902.63;;;22.09;59.17
28306;BME280;7516;43.570;1.448;2023-07-22T09:29:36;99907.97;;;22.09;59.00
28306;BME280;7516;43.570;1.448;2023-07-22T09:32:05;99912.44;;;22.20;59.62
28306;BME280;7516;43.570;1.448;2023-07-22T09:34:33;99909.13;;;22.30;59.21
28306;BME280;7516;43.570;1.448;2023-07-22T09:37:01;99910.09;;;22.24;58.51
28306;BME280;7516;43.570;1.448;2023-07-22T09:39:31;99906.69;;;22.28;58.61
28306;BME280;7516;43.570;1.448;2023-07-22T09:41:59;99902.56;;;22.37;58.39
28306;BME280;7516;43.570;1.448;2023-07-22T09:44:30;99911.94;;;22.40;57.72
28306;BME280;7516;43.570;1.448;2023-07-22T09:46:58;99902.94;;;22.46;57.40
28306;BME280;7516;43.570;1.448;2023-07-22T09:49:32;99914.03;;;22.55;57.80
28306;BME280;7516;43.570;1.448;2023-07-22T09:52:00;99907.16;;;22.59;57.67
28306;BME280;7516;43.570;1.448;2023-07-22T09:54:27;99903.06;;;22.73;56.92
28306;BME280;7516;43.570;1.448;2023-07-22T09:56:58;99906.97;;;22.82;56.24
28306;BME280;7516;43.570;1.448;2023-07-22T09:59:29;99905.03;;;22.77;55.75
28306;BME280;7516;43.570;1.448;2023-07-22T10:01:58;99909.81;;;22.75;55.06
28306;BME280;7516;43.570;1.448;2023-07-22T10:04:29;99909.06;;;22.80;55.32
28306;BME280;7516;43.570;1.448;2023-07-22T10:06:59;99914.50;;;22.85;55.36
28306;BME280;7516;43.570;1.448;2023-07-22T10:09:29;99913.81;;;22.95;54.54
28306;BME280;7516;43.570;1.448;2023-07-22T10:11:59;99912.81;;;23.01;54.92
28306;BME280;7516;43.570;1.448;2023-07-22T10:14:27;99903.78;;;23.07;54.78
28306;BME280;7516;43.570;1.448;2023-07-22T10:16:55;99903.13;;;23.16;53.78
28306;BME280;7516;43.570;1.448;2023-07-22T10:19:23;99900.00;;;23.24;53.16
28306;BME280;7516;43.570;1.448;2023-07-22T10:21:52;99901.13;;;23.29;53.23
28306;BME280;7516;43.570;1.448;2023-07-22T10:24:20;99899.63;;;23.38;53.18
28306;BME280;7516;43.570;1.448;2023-07-22T10:26:48;99891.63;;;23.43;53.18
28306;BME280;7516;43.570;1.448;2023-07-22T10:29:19;99913.28;;;23.41;53.25
28306;BME280;7516;43.570;1.448;2023-07-22T10:31:47;99900.47;;;23.43;53.13
28306;BME280;7516;43.570;1.448;2023-07-22T10:34:21;99909.06;;;23.45;52.88
28306;BME280;7516;43.570;1.448;2023-07-22T10:36:49;99898.75;;;23.54;53.28
28306;BME280;7516;43.570;1.448;2023-07-22T10:39:26;99900.38;;;23.55;52.41
28306;BME280;7516;43.570;1.448;2023-07-22T10:41:59;99894.59;;;23.68;52.82
28306;BME280;7516;43.570;1.448;2023-07-22T10:44:31;99893.13;;;23.82;52.24
28306;BME280;7516;43.570;1.448;2023-07-22T10:46:59;99898.75;;;23.81;51.31
28306;BME280;7516;43.570;1.448;2023-07-22T10:49:43;99891.06;;;23.89;51.50
28306;BME280;7516;43.570;1.448;2023-07-22T10:52:12;99894.88;;;23.98;50.81
28306;BME280;7516;43.570;1.448;2023-07-22T10:54:40;99889.00;;;24.01;50.11
28306;BME280;7516;43.570;1.448;2023-07-22T10:57:23;99890.84;;;23.96;49.56
28306;BME280;7516;43.570;1.448;2023-07-22T10:59:53;99890.66;;;24.08;50.37
28306;BME280;7516;43.570;1.448;2023-07-22T11:02:25;99888.59;;;24.20;50.62
28306;BME280;7516;43.570;1.448;2023-07-22T11:04:55;99882.72;;;24.18;49.23
28306;BME280;7516;43.570;1.448;2023-07-22T11:07:33;99880.91;;;24.28;49.46
28306;BME280;7516;43.570;1.448;2023-07-22T11:10:15;99891.94;;;24.27;48.88
28306;BME280;7516;43.570;1.448;2023-07-22T11:12:43;99884.41;;;24.29;49.28
28306;BME280;7516;43.570;1.448;2023-07-22T11:15:15;99873.25;;;24.42;48.62
28306;BME280;7516;43.570;1.448;2023-07-22T11:17:43;99867.66;;;24.44;48.69
28306;BME280;7516;43.570;1.448;2023-07-22T11:20:11;99870.56;;;24.42;48.29
28306;BME280;7516;43.570;1.448;2023-07-22T11:22:40;99862.03;;;24.50;48.75
28306;BME280;7516;43.570;1.448;2023-07-22T11:25:08;99866.91;;;24.58;48.54
28306;BME280;7516;43.570;1.448;2023-07-22T11:27:36;99872.91;;;24.75;47.82
28306;BME280;7516;43.570;1.448;2023-07-22T11:30:04;99872.16;;;24.85;47.24
28306;BME280;7516;43.570;1.448;2023-07-22T11:32:33;99874.00;;;24.85;47.07
28306;BME280;7516;43.570;1.448;2023-07-22T11:35:00;99870.28;;;24.91;46.40
28306;BME280;7516;43.570;1.448;2023-07-22T11:37:28;99869.81;;;24.99;47.73
28306;BME280;7516;43.570;1.448;2023-07-22T11:40:00;99864.44;;;24.94;46.51
28306;BME280;7516;43.570;1.448;2023-07-22T11:42:27;99866.59;;;25.02;46.92
28306;BME280;7516;43.570;1.448;2023-07-22T11:44:55;99861.53;;;25.05;46.76
28306;BME280;7516;43.570;1.448;2023-07-22T11:47:29;99861.88;;;25.24;47.15
28306;BME280;7516;43.570;1.448;2023-07-22T11:49:58;99860.75;;;25.25;46.40
28306;BME280;7516;43.570;1.448;2023-07-22T11:52:26;99862.94;;;25.28;45.72
28306;BME280;7516;43.570;1.448;2023-07-22T11:54:53;99859.47;;;25.38;45.96
28306;BME280;7516;43.570;1.448;2023-07-22T11:57:26;99857.59;;;25.48;45.81
28306;BME280;7516;43.570;1.448;2023-07-22T11:59:55;99858.69;;;25.58;45.64
28306;BME280;7516;43.570;1.448;2023-07-22T12:02:24;99863.53;;;25.61;45.45
28306;BME280;7516;43.570;1.448;2023-07-22T12:04:53;99858.72;;;25.78;45.36
28306;BME280;7516;43.570;1.448;2023-07-22T12:07:27;99860.88;;;25.86;44.78
28306;BME280;7516;43.570;1.448;2023-07-22T12:09:56;99856.03;;;25.98;44.33
28306;BME280;7516;43.570;1.448;2023-07-22T12:12:32;99851.75;;;26.02;43.01
28306;BME280;7516;43.570;1.448;2023-07-22T12:15:02;99849.06;;;25.92;44.05
28306;BME280;7516;43.570;1.448;2023-07-22T12:17:44;99848.25;;;25.92;43.21
28306;BME280;7516;43.570;1.448;2023-07-22T12:20:12;99846.38;;;25.97;43.39
28306;BME280;7516;43.570;1.448;2023-07-22T12:22:41;99842.06;;;26.01;42.82
28306;BME280;7516;43.570;1.448;2023-07-22T12:25:09;99849.84;;;26.08;42.27
28306;BME280;7516;43.570;1.448;2023-07-22T12:27:37;99848.53;;;25.85;43.62
28306;BME280;7516;43.570;1.448;2023-07-22T12:30:06;99842.63;;;25.88;44.23
28306;BME280;7516;43.570;1.448;2023-07-22T12:32:34;99834.81;;;26.02;44.42
28306;BME280;7516;43.570;1.448;2023-07-22T12:35:02;99831.31;;;26.11;44.82
28306;BME280;7516;43.570;1.448;2023-07-22T12:37:29;99835.88;;;26.11;44.65
28306;BME280;7516;43.570;1.448;2023-07-22T12:39:58;99842.06;;;26.11;45.16
28306;BME280;7516;43.570;1.448;2023-07-22T12:42:26;99836.41;;;26.08;45.04
28306;BME280;7516;43.570;1.448;2023-07-22T12:44:53;99835.06;;;26.05;45.05
28306;BME280;7516;43.570;1.448;2023-07-22T12:47:21;99831.06;;;26.08;45.22
28306;BME280;7516;43.570;1.448;2023-07-22T12:49:48;99829.72;;;26.10;45.09
28306;BME280;7516;43.570;1.448;2023-07-22T12:52:16;99825.38;;;26.14;45.25
28306;BME280;7516;43.570;1.448;2023-07-22T12:54:43;99819.47;;;26.22;45.26
28306;BME280;7516;43.570;1.448;2023-07-22T12:57:12;99818.94;;;26.26;44.98
28306;BME280;7516;43.570;1.448;2023-07-22T12:59:40;99821.59;;;26.26;45.32
28306;BME280;7516;43.570;1.448;2023-07-22T13:02:08;99813.31;;;26.27;45.15
28306;BME280;7516;43.570;1.448;2023-07-22T13:04:35;99807.06;;;26.42;45.11
28306;BME280;7516;43.570;1.448;2023-07-22T13:07:03;99810.28;;;26.54;45.08
28306;BME280;7516;43.570;1.448;2023-07-22T13:09:30;99807.00;;;26.57;44.67
28306;BME280;7516;43.570;1.448;2023-07-22T13:11:58;99807.59;;;26.54;44.71
28306;BME280;7516;43.570;1.448;2023-07-22T13:14:26;99798.97;;;26.52;44.70
28306;BME280;7516;43.570;1.448;2023-07-22T13:16:54;99799.22;;;26.60;44.54